RYR5FH EINN-EGCC
Flight info
| Callsign | RYR5FH |
|---|---|
| Flight time | 0h 49m |
| Altitude | 31000 |
| Route | AGINI3B AGINI DCT BOFUM Q37 MALUD |
| Aircraft | B738/M-SDE2E3FGHIRWXY/LB1 |
Departure
| Time | 2026-05-06 22:03 |
|---|---|
| Airport | Shannon Airport (EINN) |
Arrival
| Time | 2026-05-06 22:52 |
|---|---|
| Airport | Manchester Airport (EGCC) |
| Time | Latitude | Longitude | Altitude | Speed | Heading |
|---|---|---|---|---|---|
| 2026-05-06 21:39 | 52.69365 | -8.91954 | 22 ft | 0 kts | 185° |
| 2026-05-06 21:52 | 52.69383 | -8.91951 | 24 ft | 4 kts | 185° |
| 2026-05-06 21:52 | 52.69410 | -8.91948 | 22 ft | 4 kts | 180° |
| 2026-05-06 21:53 | 52.69436 | -8.91952 | 21 ft | 4 kts | 162° |
| 2026-05-06 21:53 | 52.69458 | -8.91972 | 24 ft | 4 kts | 123° |
| 2026-05-06 21:53 | 52.69464 | -8.91989 | 23 ft | 0 kts | 103° |
| 2026-05-06 21:57 | 52.69463 | -8.91987 | 23 ft | 1 kts | 103° |
| 2026-05-06 21:57 | 52.69456 | -8.91934 | 23 ft | 9 kts | 103° |
| 2026-05-06 21:57 | 52.69436 | -8.91824 | 24 ft | 10 kts | 111° |
| 2026-05-06 21:57 | 52.69389 | -8.91742 | 21 ft | 10 kts | 165° |
| 2026-05-06 21:58 | 52.69322 | -8.91706 | 24 ft | 10 kts | 147° |
| 2026-05-06 21:58 | 52.69274 | -8.91625 | 21 ft | 10 kts | 130° |
| 2026-05-06 21:58 | 52.69272 | -8.91527 | 24 ft | 10 kts | 42° |
| 2026-05-06 21:58 | 52.69334 | -8.91487 | 23 ft | 10 kts | 18° |
| 2026-05-06 21:59 | 52.69412 | -8.91444 | 22 ft | 14 kts | 19° |
| 2026-05-06 21:59 | 52.69519 | -8.91383 | 23 ft | 18 kts | 19° |
| 2026-05-06 21:59 | 52.69653 | -8.91311 | 21 ft | 21 kts | 19° |
| 2026-05-06 21:59 | 52.69792 | -8.91233 | 24 ft | 21 kts | 17° |
| 2026-05-06 22:00 | 52.69927 | -8.91160 | 21 ft | 20 kts | 20° |
| 2026-05-06 22:00 | 52.70058 | -8.91086 | 22 ft | 20 kts | 18° |
| 2026-05-06 22:00 | 52.70185 | -8.91018 | 23 ft | 19 kts | 18° |
| 2026-05-06 22:00 | 52.70307 | -8.90949 | 23 ft | 18 kts | 19° |
| 2026-05-06 22:01 | 52.70426 | -8.90883 | 24 ft | 18 kts | 18° |
| 2026-05-06 22:01 | 52.70540 | -8.90821 | 22 ft | 17 kts | 18° |
| 2026-05-06 22:01 | 52.70650 | -8.90761 | 22 ft | 16 kts | 19° |
| 2026-05-06 22:01 | 52.70758 | -8.90700 | 22 ft | 16 kts | 19° |
| 2026-05-06 22:02 | 52.70873 | -8.90673 | 24 ft | 17 kts | 343° |
| 2026-05-06 22:02 | 52.70969 | -8.90781 | 23 ft | 17 kts | 306° |
| 2026-05-06 22:02 | 52.70929 | -8.90940 | 22 ft | 17 kts | 232° |
| 2026-05-06 22:02 | 52.70684 | -8.91457 | 24 ft | 102 kts | 232° |
| 2026-05-06 22:03 | 52.70094 | -8.92699 | 88 ft | 171 kts | 232° |
| 2026-05-06 22:03 | 52.69269 | -8.94268 | 959 ft | 181 kts | 228° |
| 2026-05-06 22:03 | 52.68602 | -8.95989 | 2053 ft | 182 kts | 261° |
| 2026-05-06 22:03 | 52.68824 | -8.97989 | 2976 ft | 185 kts | 297° |
| 2026-05-06 22:04 | 52.69535 | -8.99824 | 3679 ft | 194 kts | 298° |
| 2026-05-06 22:04 | 52.70186 | -9.01782 | 4474 ft | 197 kts | 295° |
| 2026-05-06 22:04 | 52.70803 | -9.03827 | 4875 ft | 199 kts | 293° |
| 2026-05-06 22:04 | 52.71391 | -9.05904 | 4977 ft | 200 kts | 292° |
| 2026-05-06 22:05 | 52.72109 | -9.07880 | 4982 ft | 205 kts | 313° |
| 2026-05-06 22:05 | 52.73378 | -9.08928 | 4994 ft | 214 kts | 352° |
| 2026-05-06 22:05 | 52.74967 | -9.08528 | 5032 ft | 253 kts | 19° |
| 2026-05-06 22:05 | 52.76713 | -9.07475 | 5018 ft | 273 kts | 21° |
| 2026-05-06 22:06 | 52.78498 | -9.06359 | 5020 ft | 276 kts | 21° |
| 2026-05-06 22:06 | 52.80314 | -9.05226 | 5454 ft | 282 kts | 21° |
| 2026-05-06 22:06 | 52.82152 | -9.04087 | 6368 ft | 284 kts | 20° |
| 2026-05-06 22:06 | 52.84007 | -9.02946 | 7233 ft | 285 kts | 20° |
| 2026-05-06 22:07 | 52.85874 | -9.01802 | 8123 ft | 287 kts | 20° |
| 2026-05-06 22:07 | 52.87754 | -9.00654 | 9000 ft | 290 kts | 19° |
| 2026-05-06 22:07 | 52.89654 | -8.99495 | 9857 ft | 293 kts | 19° |
| 2026-05-06 22:07 | 52.91576 | -8.98324 | 10624 ft | 296 kts | 19° |
| 2026-05-06 22:08 | 52.93531 | -8.97131 | 11379 ft | 301 kts | 19° |
| 2026-05-06 22:08 | 52.95465 | -8.95747 | 12150 ft | 307 kts | 33° |
| 2026-05-06 22:08 | 52.97022 | -8.93301 | 12970 ft | 311 kts | 48° |
| 2026-05-06 22:08 | 52.98458 | -8.90578 | 13795 ft | 316 kts | 49° |
| 2026-05-06 22:09 | 52.99902 | -8.87800 | 14559 ft | 319 kts | 49° |
| 2026-05-06 22:09 | 53.01360 | -8.85000 | 15393 ft | 321 kts | 48° |
| 2026-05-06 22:09 | 53.02828 | -8.82194 | 16225 ft | 323 kts | 48° |
| 2026-05-06 22:09 | 53.04313 | -8.79367 | 17043 ft | 326 kts | 48° |
| 2026-05-06 22:10 | 53.05814 | -8.76515 | 17852 ft | 330 kts | 48° |
| 2026-05-06 22:10 | 53.07332 | -8.73634 | 18603 ft | 333 kts | 47° |
| 2026-05-06 22:10 | 53.08865 | -8.70724 | 19309 ft | 336 kts | 47° |
| 2026-05-06 22:10 | 53.10406 | -8.67796 | 20024 ft | 338 kts | 47° |
| 2026-05-06 22:11 | 53.11963 | -8.64836 | 20744 ft | 340 kts | 47° |
| 2026-05-06 22:11 | 53.13525 | -8.61862 | 21426 ft | 343 kts | 47° |
| 2026-05-06 22:11 | 53.15076 | -8.58807 | 22097 ft | 348 kts | 54° |
| 2026-05-06 22:11 | 53.16092 | -8.55107 | 22502 ft | 362 kts | 73° |
| 2026-05-06 22:12 | 53.16716 | -8.50928 | 22643 ft | 381 kts | 76° |
| 2026-05-06 22:12 | 53.17104 | -8.48033 | 22733 ft | 392 kts | 76° |
| 2026-05-06 22:12 | 53.17687 | -8.43499 | 22858 ft | 408 kts | 77° |
| 2026-05-06 22:12 | 53.18288 | -8.38795 | 23099 ft | 420 kts | 77° |
| 2026-05-06 22:13 | 53.18907 | -8.34008 | 23578 ft | 424 kts | 76° |
| 2026-05-06 22:13 | 53.19537 | -8.29194 | 24109 ft | 426 kts | 76° |
| 2026-05-06 22:13 | 53.20175 | -8.24367 | 24641 ft | 426 kts | 76° |
| 2026-05-06 22:13 | 53.20820 | -8.19524 | 25126 ft | 429 kts | 76° |
| 2026-05-06 22:14 | 53.21471 | -8.14658 | 25556 ft | 432 kts | 76° |
| 2026-05-06 22:14 | 53.22126 | -8.09754 | 25996 ft | 434 kts | 76° |
| 2026-05-06 22:14 | 53.22783 | -8.04819 | 26451 ft | 436 kts | 76° |
| 2026-05-06 22:14 | 53.23441 | -7.99867 | 26897 ft | 438 kts | 76° |
| 2026-05-06 22:15 | 53.24099 | -7.94887 | 27328 ft | 441 kts | 76° |
| 2026-05-06 22:15 | 53.24759 | -7.89882 | 27734 ft | 443 kts | 77° |
| 2026-05-06 22:15 | 53.25421 | -7.84846 | 28133 ft | 445 kts | 77° |
| 2026-05-06 22:15 | 53.26085 | -7.79772 | 28582 ft | 446 kts | 77° |
| 2026-05-06 22:16 | 53.26744 | -7.74716 | 29159 ft | 444 kts | 77° |
| 2026-05-06 22:16 | 53.27396 | -7.69694 | 29811 ft | 440 kts | 77° |
| 2026-05-06 22:16 | 53.28040 | -7.64718 | 30407 ft | 436 kts | 77° |
| 2026-05-06 22:16 | 53.28678 | -7.59772 | 30874 ft | 435 kts | 77° |
| 2026-05-06 22:17 | 53.29956 | -7.49819 | 30971 ft | 437 kts | 77° |
| 2026-05-06 22:17 | 53.31212 | -7.39962 | 30985 ft | 435 kts | 77° |
| 2026-05-06 22:18 | 53.32465 | -7.30058 | 30988 ft | 435 kts | 77° |
| 2026-05-06 22:18 | 53.33709 | -7.20156 | 30989 ft | 435 kts | 77° |
| 2026-05-06 22:19 | 53.34945 | -7.10246 | 30987 ft | 435 kts | 77° |
| 2026-05-06 22:19 | 53.36171 | -7.00343 | 30982 ft | 434 kts | 77° |
| 2026-05-06 22:20 | 53.37389 | -6.90434 | 30984 ft | 434 kts | 77° |
| 2026-05-06 22:20 | 53.38597 | -6.80537 | 30980 ft | 434 kts | 77° |
| 2026-05-06 22:21 | 53.39796 | -6.70637 | 30987 ft | 434 kts | 77° |
| 2026-05-06 22:21 | 53.40988 | -6.60732 | 30984 ft | 434 kts | 77° |
| 2026-05-06 22:22 | 53.42170 | -6.50820 | 30995 ft | 433 kts | 77° |
| 2026-05-06 22:22 | 53.43344 | -6.40906 | 30995 ft | 434 kts | 77° |
| 2026-05-06 22:23 | 53.44509 | -6.30991 | 30990 ft | 434 kts | 77° |
| 2026-05-06 22:23 | 53.45668 | -6.21059 | 30988 ft | 434 kts | 77° |
| 2026-05-06 22:24 | 53.46820 | -6.11111 | 30990 ft | 434 kts | 77° |
| 2026-05-06 22:24 | 53.47961 | -6.01172 | 30989 ft | 434 kts | 77° |
| 2026-05-06 22:25 | 53.49095 | -5.91225 | 30989 ft | 433 kts | 77° |
| 2026-05-06 22:25 | 53.50219 | -5.81285 | 30989 ft | 433 kts | 77° |
| 2026-05-06 22:26 | 53.51335 | -5.71339 | 30992 ft | 433 kts | 77° |
| 2026-05-06 22:26 | 53.52438 | -5.61447 | 30995 ft | 433 kts | 77° |
| 2026-05-06 22:27 | 53.53522 | -5.51488 | 30997 ft | 433 kts | 80° |
| 2026-05-06 22:27 | 53.53601 | -5.41330 | 31000 ft | 436 kts | 91° |
| 2026-05-06 22:28 | 53.53282 | -5.31146 | 30996 ft | 436 kts | 91° |
| 2026-05-06 22:28 | 53.53021 | -5.20963 | 30997 ft | 436 kts | 90° |
| 2026-05-06 22:29 | 53.52753 | -5.10767 | 30995 ft | 437 kts | 91° |
| 2026-05-06 22:29 | 53.52414 | -5.00572 | 30999 ft | 437 kts | 91° |
| 2026-05-06 22:30 | 53.52071 | -4.90364 | 30613 ft | 437 kts | 91° |
| 2026-05-06 22:30 | 53.51900 | -4.85308 | 30156 ft | 431 kts | 91° |
| 2026-05-06 22:30 | 53.51730 | -4.80296 | 29614 ft | 427 kts | 91° |
| 2026-05-06 22:31 | 53.51561 | -4.75348 | 29116 ft | 421 kts | 91° |
| 2026-05-06 22:31 | 53.51393 | -4.70468 | 28616 ft | 416 kts | 91° |
| 2026-05-06 22:31 | 53.51225 | -4.65642 | 28122 ft | 412 kts | 91° |
| 2026-05-06 22:31 | 53.51057 | -4.60854 | 27626 ft | 408 kts | 91° |
| 2026-05-06 22:32 | 53.50892 | -4.56175 | 27150 ft | 404 kts | 91° |
| 2026-05-06 22:32 | 53.50723 | -4.51484 | 26662 ft | 401 kts | 91° |
| 2026-05-06 22:32 | 53.50555 | -4.46834 | 26194 ft | 398 kts | 92° |
| 2026-05-06 22:32 | 53.50386 | -4.42216 | 25726 ft | 395 kts | 92° |
| 2026-05-06 22:33 | 53.50216 | -4.37619 | 25260 ft | 392 kts | 92° |
| 2026-05-06 22:33 | 53.50045 | -4.33058 | 24803 ft | 390 kts | 92° |
| 2026-05-06 22:33 | 53.49874 | -4.28526 | 24344 ft | 388 kts | 92° |
| 2026-05-06 22:33 | 53.49702 | -4.24009 | 23875 ft | 387 kts | 92° |
| 2026-05-06 22:34 | 53.49528 | -4.19506 | 23368 ft | 386 kts | 92° |
| 2026-05-06 22:34 | 53.49354 | -4.15016 | 22850 ft | 384 kts | 92° |
| 2026-05-06 22:34 | 53.49179 | -4.10549 | 22362 ft | 381 kts | 93° |
| 2026-05-06 22:34 | 53.49004 | -4.06124 | 21893 ft | 379 kts | 93° |
| 2026-05-06 22:35 | 53.48828 | -4.01725 | 21436 ft | 376 kts | 93° |
| 2026-05-06 22:35 | 53.48629 | -3.97364 | 20983 ft | 373 kts | 96° |
| 2026-05-06 22:35 | 53.48075 | -3.93124 | 20524 ft | 371 kts | 108° |
| 2026-05-06 22:35 | 53.47232 | -3.89034 | 20091 ft | 369 kts | 110° |
| 2026-05-06 22:36 | 53.46365 | -3.84992 | 19652 ft | 367 kts | 110° |
| 2026-05-06 22:36 | 53.45506 | -3.80969 | 19214 ft | 365 kts | 110° |
| 2026-05-06 22:36 | 53.44659 | -3.76949 | 18780 ft | 364 kts | 110° |
| 2026-05-06 22:36 | 53.43837 | -3.73010 | 18359 ft | 362 kts | 110° |
| 2026-05-06 22:37 | 53.43011 | -3.69029 | 17885 ft | 360 kts | 110° |
| 2026-05-06 22:37 | 53.42189 | -3.65074 | 17409 ft | 358 kts | 110° |
| 2026-05-06 22:37 | 53.41385 | -3.61135 | 16965 ft | 356 kts | 107° |
| 2026-05-06 22:37 | 53.40982 | -3.57056 | 16568 ft | 355 kts | 95° |
| 2026-05-06 22:38 | 53.40826 | -3.52921 | 16120 ft | 357 kts | 93° |
| 2026-05-06 22:38 | 53.40696 | -3.48745 | 15691 ft | 360 kts | 93° |
| 2026-05-06 22:38 | 53.40554 | -3.44542 | 15252 ft | 361 kts | 94° |
| 2026-05-06 22:38 | 53.40395 | -3.40345 | 14813 ft | 362 kts | 94° |
| 2026-05-06 22:39 | 53.40220 | -3.36134 | 14382 ft | 362 kts | 94° |
| 2026-05-06 22:39 | 53.40037 | -3.31939 | 13947 ft | 360 kts | 95° |
| 2026-05-06 22:39 | 53.39851 | -3.27771 | 13471 ft | 357 kts | 95° |
| 2026-05-06 22:39 | 53.39664 | -3.23641 | 13018 ft | 354 kts | 95° |
| 2026-05-06 22:40 | 53.39476 | -3.19554 | 12579 ft | 350 kts | 95° |
| 2026-05-06 22:40 | 53.39324 | -3.15503 | 12146 ft | 347 kts | 89° |
| 2026-05-06 22:40 | 53.39824 | -3.11601 | 11756 ft | 341 kts | 66° |
| 2026-05-06 22:40 | 53.40925 | -3.08115 | 11361 ft | 337 kts | 59° |
| 2026-05-06 22:41 | 53.43301 | -3.01448 | 10765 ft | 323 kts | 58° |
| 2026-05-06 22:41 | 53.44424 | -2.98291 | 10618 ft | 308 kts | 58° |
| 2026-05-06 22:41 | 53.45485 | -2.95270 | 10488 ft | 294 kts | 58° |
| 2026-05-06 22:42 | 53.46503 | -2.92352 | 10198 ft | 288 kts | 58° |
| 2026-05-06 22:42 | 53.47506 | -2.89464 | 9836 ft | 287 kts | 58° |
| 2026-05-06 22:42 | 53.48503 | -2.86584 | 9513 ft | 286 kts | 58° |
| 2026-05-06 22:42 | 53.49490 | -2.83719 | 9278 ft | 281 kts | 58° |
| 2026-05-06 22:43 | 53.50470 | -2.80871 | 8885 ft | 283 kts | 58° |
| 2026-05-06 22:43 | 53.51449 | -2.77999 | 8586 ft | 281 kts | 62° |
| 2026-05-06 22:43 | 53.51946 | -2.74851 | 8269 ft | 281 kts | 92° |
| 2026-05-06 22:43 | 53.51498 | -2.71739 | 8005 ft | 272 kts | 120° |
| 2026-05-06 22:44 | 53.50338 | -2.69325 | 7702 ft | 263 kts | 143° |
| 2026-05-06 22:44 | 53.48793 | -2.67852 | 7326 ft | 257 kts | 161° |
| 2026-05-06 22:44 | 53.47145 | -2.66767 | 6965 ft | 255 kts | 162° |
| 2026-05-06 22:44 | 53.45487 | -2.65708 | 6613 ft | 254 kts | 162° |
| 2026-05-06 22:45 | 53.43844 | -2.64660 | 6293 ft | 251 kts | 162° |
| 2026-05-06 22:45 | 53.42222 | -2.63622 | 5967 ft | 248 kts | 162° |
| 2026-05-06 22:45 | 53.40616 | -2.62590 | 5618 ft | 246 kts | 162° |
| 2026-05-06 22:45 | 53.39027 | -2.61568 | 5302 ft | 243 kts | 161° |
| 2026-05-06 22:46 | 53.37452 | -2.60554 | 5073 ft | 242 kts | 161° |
| 2026-05-06 22:46 | 53.35888 | -2.59543 | 4828 ft | 241 kts | 161° |
| 2026-05-06 22:46 | 53.34334 | -2.58537 | 4605 ft | 238 kts | 161° |
| 2026-05-06 22:46 | 53.32801 | -2.57549 | 4400 ft | 234 kts | 160° |
| 2026-05-06 22:47 | 53.31314 | -2.56587 | 4222 ft | 224 kts | 160° |
| 2026-05-06 22:47 | 53.29884 | -2.55663 | 3997 ft | 216 kts | 160° |
| 2026-05-06 22:47 | 53.28510 | -2.54779 | 3812 ft | 207 kts | 160° |
| 2026-05-06 22:47 | 53.27193 | -2.53930 | 3635 ft | 198 kts | 160° |
| 2026-05-06 22:48 | 53.25936 | -2.53117 | 3473 ft | 190 kts | 158° |
| 2026-05-06 22:48 | 53.24942 | -2.51782 | 3323 ft | 187 kts | 118° |
| 2026-05-06 22:48 | 53.24769 | -2.49643 | 3199 ft | 195 kts | 76° |
| 2026-05-06 22:48 | 53.25487 | -2.47753 | 3070 ft | 192 kts | 51° |
| 2026-05-06 22:49 | 53.26348 | -2.46046 | 2795 ft | 191 kts | 52° |
| 2026-05-06 22:49 | 53.27179 | -2.44357 | 2589 ft | 184 kts | 52° |
| 2026-05-06 22:49 | 53.27974 | -2.42754 | 2426 ft | 176 kts | 53° |
| 2026-05-06 22:49 | 53.28726 | -2.41222 | 2216 ft | 168 kts | 54° |
| 2026-05-06 22:50 | 53.29451 | -2.39728 | 1992 ft | 161 kts | 54° |
| 2026-05-06 22:50 | 53.30144 | -2.38294 | 1770 ft | 155 kts | 54° |
| 2026-05-06 22:50 | 53.30795 | -2.36950 | 1510 ft | 142 kts | 55° |
| 2026-05-06 22:50 | 53.31402 | -2.35708 | 1227 ft | 135 kts | 55° |
| 2026-05-06 22:51 | 53.31988 | -2.34467 | 1035 ft | 139 kts | 55° |
| 2026-05-06 22:51 | 53.32598 | -2.33206 | 920 ft | 140 kts | 52° |
| 2026-05-06 22:51 | 53.33222 | -2.31941 | 767 ft | 139 kts | 54° |
| 2026-05-06 22:51 | 53.33804 | -2.30711 | 556 ft | 136 kts | 52° |
| 2026-05-06 22:52 | 53.34407 | -2.29475 | 353 ft | 138 kts | 50° |
| 2026-05-06 22:52 | 53.35009 | -2.28246 | 248 ft | 132 kts | 51° |
| 2026-05-06 22:52 | 53.35523 | -2.27185 | 260 ft | 97 kts | 51° |
| 2026-05-06 22:52 | 53.35748 | -2.26729 | 266 ft | 39 kts | 46° |
| 2026-05-06 22:53 | 53.35919 | -2.26713 | 256 ft | 19 kts | 350° |
| 2026-05-06 22:53 | 53.35984 | -2.26853 | 247 ft | 18 kts | 229° |
| 2026-05-06 22:53 | 53.35914 | -2.26880 | 249 ft | 6 kts | 202° |
| 2026-05-06 22:53 | 53.35876 | -2.26922 | 251 ft | 8 kts | 214° |
| 2026-05-06 22:54 | 53.35833 | -2.26994 | 252 ft | 9 kts | 236° |
| 2026-05-06 22:54 | 53.35791 | -2.27099 | 251 ft | 14 kts | 232° |
| 2026-05-06 22:54 | 53.35763 | -2.27265 | 247 ft | 19 kts | 290° |
| 2026-05-06 22:54 | 53.35722 | -2.27455 | 247 ft | 18 kts | 232° |
| 2026-05-06 22:55 | 53.35712 | -2.27629 | 246 ft | 18 kts | 328° |
| 2026-05-06 22:55 | 53.35829 | -2.27655 | 246 ft | 17 kts | 5° |
| 2026-05-06 22:55 | 53.35941 | -2.27636 | 246 ft | 15 kts | 6° |
| 2026-05-06 22:55 | 53.36022 | -2.27620 | 246 ft | 9 kts | 19° |
| 2026-05-06 22:56 | 53.36035 | -2.27535 | 246 ft | 9 kts | 106° |
| 2026-05-06 22:56 | 53.36032 | -2.27506 | 246 ft | 1 kts | 97° |
| 2026-05-06 22:56 | 53.36032 | -2.27504 | 246 ft | 0 kts | 98° |